Time;durP1;ratioP1;P1;durP2;ratioP2;P2;SDS_P1;SDS_P2;PMS_P1;PMS_P2;Temp;Humidity;BMP_temperature;BMP_pressure;BME280_temperature;BME280_humidity;BME280_pressure;Samples;Min_cycle;Max_cycle;Signal;HPM_P1;HPM_P2
2022/01/30 00:01:25;;;;;;;4.13;1.80;;;22.60;43.60;;;;;;6061807;28;80256;-64
2022/01/30 00:04:26;;;;;;;2.92;1.80;;;22.50;43.60;;;;;;6065026;28;80615;-64
2022/01/30 00:07:26;;;;;;;2.17;1.50;;;22.60;43.60;;;;;;6061302;28;80425;-63
2022/01/30 00:10:27;;;;;;;2.50;1.65;;;22.50;43.60;;;;;;6064476;28;81097;-63
2022/01/30 00:13:28;;;;;;;2.42;1.70;;;22.50;43.50;;;;;;6067218;28;81231;-65
2022/01/30 00:16:33;;;;;;;3.10;1.67;;;22.50;43.80;;;;;;6059650;28;81711;-62
2022/01/30 00:22:46;;;;;;;2.42;1.58;;;22.50;43.70;;;;;;6065223;28;81497;-62
2022/01/30 00:25:52;;;;;;;3.13;1.90;;;22.50;43.30;;;;;;6048336;28;80930;-62
2022/01/30 00:28:53;;;;;;;1.38;1.27;;;22.50;43.30;;;;;;6048389;28;80405;-61
2022/01/30 00:31:53;;;;;;;1.98;1.40;;;22.50;43.20;;;;;;6065217;28;80594;-62
2022/01/30 00:34:54;;;;;;;2.35;1.40;;;22.50;43.10;;;;;;6064775;28;81002;-62
2022/01/30 00:37:55;;;;;;;2.00;1.35;;;22.50;43.10;;;;;;6034739;28;81908;-62
2022/01/30 00:40:55;;;;;;;2.38;1.45;;;22.50;43.10;;;;;;6064213;28;80571;-62
2022/01/30 00:43:56;;;;;;;1.77;1.15;;;22.50;42.90;;;;;;6066765;28;80919;-63
2022/01/30 00:46:58;;;;;;;1.40;1.23;;;22.60;43.20;;;;;;6048509;28;80434;-62
2022/01/30 00:49:59;;;;;;;3.35;1.30;;;22.60;43.00;;;;;;6048581;28;83036;-63
2022/01/30 00:52:59;;;;;;;1.63;1.10;;;22.60;42.80;;;;;;6063831;28;83530;-62
2022/01/30 00:56:00;;;;;;;1.73;1.27;;;22.60;43.00;;;;;;6057491;28;81468;-63
2022/01/30 00:59:00;;;;;;;1.40;1.10;;;22.60;42.60;;;;;;6057867;28;80449;-62
2022/01/30 01:02:01;;;;;;;2.42;1.17;;;22.60;42.70;;;;;;6046470;28;80916;-62
2022/01/30 01:05:05;;;;;;;1.90;1.27;;;22.50;42.70;;;;;;6034850;28;82224;-63
2022/01/30 01:08:21;;;;;;;1.48;1.20;;;22.50;42.90;;;;;;6061647;28;81086;-62
2022/01/30 01:24:17;;;;;;;1.15;1.00;;;22.60;43.80;;;;;;6046158;28;83190;-64
2022/01/30 01:27:18;;;;;;;1.27;1.10;;;22.60;43.40;;;;;;6061586;28;81127;-65
2022/01/30 01:30:18;;;;;;;1.83;0.80;;;22.60;43.80;;;;;;6065038;28;83293;-65
2022/01/30 01:33:21;;;;;;;1.60;1.27;;;22.60;44.90;;;;;;6062151;28;83621;-66
2022/01/30 01:36:22;;;;;;;1.23;1.13;;;22.60;45.20;;;;;;6081408;28;83910;-65
2022/01/30 01:39:23;;;;;;;1.38;1.10;;;22.60;45.60;;;;;;6063235;28;84969;-66
2022/01/30 01:42:26;;;;;;;0.95;0.85;;;22.60;45.90;;;;;;6064971;28;81463;-67
2022/01/30 01:45:33;;;;;;;0.82;0.82;;;22.60;45.90;;;;;;6064300;28;81780;-66
2022/01/30 01:48:35;;;;;;;3.95;1.15;;;22.60;46.10;;;;;;6054024;28;80756;-66
2022/01/30 01:51:36;;;;;;;3.00;1.13;;;22.60;45.90;;;;;;6062386;28;80465;-66
2022/01/30 01:54:36;;;;;;;1.08;0.70;;;22.60;46.30;;;;;;6046447;28;81832;-66
2022/01/30 01:57:37;;;;;;;1.30;1.05;;;22.60;46.20;;;;;;6058215;28;82017;-66
2022/01/30 02:00:59;;;;;;;0.95;0.80;;;22.60;46.20;;;;;;6064717;28;80453;-65
2022/01/30 02:03:59;;;;;;;0.70;0.70;;;22.60;46.10;;;;;;6045923;28;83011;-66
2022/01/30 02:10:33;;;;;;;1.63;0.90;;;22.60;46.20;;;;;;6020110;28;83237;-65
2022/01/30 02:24:10;;;;;;;0.90;0.90;;;22.60;46.00;;;;;;5955607;29;81798;-64
2022/01/30 02:27:11;;;;;;;2.22;1.00;;;22.60;45.30;;;;;;6003499;28;82622;-65
2022/01/30 02:30:16;;;;;;;2.80;1.00;;;22.60;44.90;;;;;;6065672;28;82729;-64
2022/01/30 02:33:16;;;;;;;1.08;0.80;;;22.60;44.70;;;;;;6060082;28;83579;-64
2022/01/30 02:36:17;;;;;;;0.98;0.80;;;22.60;44.70;;;;;;6072397;28;80574;-64
2022/01/30 02:39:18;;;;;;;1.42;1.02;;;22.60;44.60;;;;;;6060591;28;83008;-65
2022/01/30 02:42:23;;;;;;;1.00;0.90;;;22.70;44.80;;;;;;6039858;28;83604;-65
2022/01/30 02:45:27;;;;;;;1.70;1.10;;;22.70;44.30;;;;;;6043071;28;87067;-65
2022/01/30 02:48:44;;;;;;;1.15;1.05;;;22.60;43.80;;;;;;6061353;28;81728;-64
2022/01/30 02:51:52;;;;;;;2.35;0.88;;;22.60;43.80;;;;;;6036393;28;83354;-65
2022/01/30 02:54:54;;;;;;;1.65;1.23;;;22.60;43.70;;;;;;6044760;28;83285;-65
2022/01/30 02:57:56;;;;;;;2.10;1.15;;;22.70;43.80;;;;;;6043654;28;82580;-64
2022/01/30 03:00:56;;;;;;;2.15;1.10;;;22.80;43.70;;;;;;6048302;28;83294;-64
2022/01/30 03:03:57;;;;;;;1.70;1.13;;;22.80;43.70;;;;;;6071118;28;83146;-64
2022/01/30 03:06:57;;;;;;;4.07;1.63;;;22.80;43.50;;;;;;6063308;28;80298;-64
2022/01/30 03:10:08;;;;;;;2.20;1.35;;;22.90;43.60;;;;;;6062138;28;83775;-64
2022/01/30 03:13:08;;;;;;;1.70;1.27;;;22.90;43.50;;;;;;6047345;28;83024;-65
2022/01/30 03:16:09;;;;;;;2.67;1.40;;;22.90;43.50;;;;;;6060680;28;83354;-64
2022/01/30 03:19:09;;;;;;;2.00;1.30;;;22.90;43.60;;;;;;6063496;28;81622;-64
2022/01/30 03:22:10;;;;;;;4.40;1.25;;;22.90;43.50;;;;;;6062507;28;83027;-63
2022/01/30 03:25:10;;;;;;;1.48;1.00;;;23.00;43.60;;;;;;6052213;28;82266;-64
2022/01/30 03:28:32;;;;;;;1.58;1.13;;;23.00;43.60;;;;;;6062175;28;80822;-63
2022/01/30 03:31:42;;;;;;;3.72;1.55;;;23.00;43.60;;;;;;6046313;28;82070;-63
2022/01/30 03:34:44;;;;;;;2.30;1.17;;;23.00;43.60;;;;;;6048743;28;82972;-64
2022/01/30 03:37:44;;;;;;;3.63;1.55;;;23.00;43.80;;;;;;6060713;28;80756;-63
2022/01/30 03:40:45;;;;;;;2.33;1.23;;;23.00;43.60;;;;;;6045571;28;83347;-63
2022/01/30 03:43:46;;;;;;;2.20;1.17;;;23.00;43.70;;;;;;6048533;28;83338;-64
2022/01/30 03:46:47;;;;;;;2.35;1.20;;;23.00;43.70;;;;;;6053122;28;83180;-64
2022/01/30 03:49:48;;;;;;;3.25;1.30;;;23.10;43.80;;;;;;6053734;28;83593;-64
2022/01/30 03:52:48;;;;;;;2.30;1.30;;;23.10;43.70;;;;;;6059891;28;81844;-64
2022/01/30 03:55:50;;;;;;;2.67;1.25;;;23.10;43.80;;;;;;6044848;28;81614;-64
2022/01/30 03:59:01;;;;;;;4.40;1.42;;;23.10;43.80;;;;;;6049127;28;83871;-64
2022/01/30 04:02:02;;;;;;;4.22;1.48;;;23.10;43.70;;;;;;6050074;28;83058;-64
2022/01/30 04:05:03;;;;;;;3.55;1.67;;;23.10;43.70;;;;;;6059895;28;83299;-64
2022/01/30 04:08:09;;;;;;;3.42;1.42;;;23.10;43.60;;;;;;6049071;28;81413;-64
2022/01/30 04:11:12;;;;;;;4.15;1.23;;;23.10;43.70;;;;;;6047647;28;82763;-64
2022/01/30 04:14:25;;;;;;;4.55;1.58;;;23.10;43.50;;;;;;6045139;28;83459;-64
2022/01/30 04:17:41;;;;;;;;;;;23.10;43.50;;;;;;6039788;28;83894;-63
2022/01/30 04:21:01;;;;;;;4.13;1.58;;;23.10;43.50;;;;;;6067612;28;80017;-63
2022/01/30 04:24:21;;;;;;;2.17;1.42;;;23.20;43.40;;;;;;6043697;28;80149;-63
2022/01/30 04:27:40;;;;;;;2.88;1.38;;;23.20;43.50;;;;;;6063470;28;84627;-64
2022/01/30 04:31:16;;;;;;;4.05;1.55;;;23.20;43.50;;;;;;6048505;28;81365;-64
2022/01/30 04:34:58;;;;;;;2.90;1.40;;;23.10;43.40;;;;;;6039131;28;80621;-64
2022/01/30 04:38:31;;;;;;;3.38;1.38;;;23.10;43.50;;;;;;6059040;28;83035;-64
2022/01/30 04:52:53;;;;;;;2.38;1.10;;;23.10;44.10;;;;;;6045676;28;82531;-64
2022/01/30 05:06:17;;;;;;;3.25;1.20;;;23.00;42.90;;;;;;6040129;28;81284;-65
2022/01/30 05:09:39;;;;;;;7.30;1.83;;;23.00;42.80;;;;;;6060910;28;86225;-65
2022/01/30 05:12:55;;;;;;;4.00;1.27;;;23.00;42.80;;;;;;6065495;28;87427;-64
2022/01/30 05:16:01;;;;;;;3.33;1.20;;;22.90;42.50;;;;;;6042518;28;81869;-64
2022/01/30 05:19:14;;;;;;;5.30;1.63;;;23.00;42.50;;;;;;6045571;28;83381;-64
2022/01/30 05:22:34;;;;;;;4.90;1.40;;;22.90;42.30;;;;;;6063021;28;80232;-64
2022/01/30 05:25:53;;;;;;;3.05;1.20;;;23.00;42.20;;;;;;6064600;28;80496;-64
2022/01/30 05:28:55;;;;;;;7.10;1.80;;;22.90;42.10;;;;;;6057557;28;83367;-63
2022/01/30 05:32:03;;;;;;;10.45;2.58;;;22.90;42.30;;;;;;6041691;28;83172;-63
2022/01/30 05:35:27;;;;;;;5.35;1.55;;;22.90;42.40;;;;;;6057521;28;81191;-63
2022/01/30 05:39:04;;;;;;;5.20;1.63;;;22.90;42.40;;;;;;6017874;28;80273;-64
2022/01/30 05:42:28;;;;;;;8.40;1.67;;;22.90;42.80;;;;;;6023699;28;84768;-64
2022/01/30 05:46:10;;;;;;;5.47;2.05;;;22.90;41.90;;;;;;6037938;28;81734;-63
2022/01/30 05:49:43;;;;;;;4.22;1.25;;;22.90;41.80;;;;;;6036600;28;81023;-63
2022/01/30 05:53:13;;;;;;;6.28;1.70;;;22.90;41.70;;;;;;6053912;28;80475;-64
2022/01/30 05:56:24;;;;;;;3.40;1.42;;;22.90;41.90;;;;;;6050681;28;82807;-64
2022/01/30 05:59:26;;;;;;;4.05;1.80;;;22.90;41.60;;;;;;6045205;28;83200;-63
2022/01/30 06:02:53;;;;;;;3.15;1.67;;;22.90;42.40;;;;;;6032128;28;80443;-63
2022/01/30 06:05:53;;;;;;;2.40;1.33;;;22.80;41.80;;;;;;6061039;28;80398;-64
2022/01/30 06:12:13;;;;;;;4.75;1.48;;;22.80;42.60;;;;;;6061452;28;82830;-63
2022/01/30 06:15:15;;;;;;;4.43;1.52;;;22.90;43.20;;;;;;6044877;28;82325;-62
2022/01/30 06:18:16;;;;;;;9.27;1.75;;;22.80;43.70;;;;;;6055165;28;81964;-62
2022/01/30 06:21:35;;;;;;;5.85;1.60;;;22.80;43.90;;;;;;6052197;28;84794;-62
2022/01/30 06:24:54;;;;;;;3.13;1.58;;;22.80;43.80;;;;;;6049299;28;80704;-64
2022/01/30 06:28:14;;;;;;;4.88;1.90;;;22.80;43.70;;;;;;6046974;28;81580;-63
2022/01/30 06:31:23;;;;;;;3.28;1.27;;;22.90;44.20;;;;;;6052744;28;81603;-62
2022/01/30 06:34:42;;;;;;;5.25;1.50;;;22.80;44.60;;;;;;6063449;28;80499;-63
2022/01/30 06:38:15;;;;;;;4.00;1.23;;;22.70;46.10;;;;;;6034544;28;80577;-63
2022/01/30 06:41:44;;;;;;;2.95;0.90;;;22.60;47.70;;;;;;6039923;28;80961;-63
2022/01/30 06:45:03;;;;;;;7.93;1.48;;;22.70;48.40;;;;;;6058064;28;80090;-66
2022/01/30 06:48:38;;;;;;;1.77;0.90;;;22.70;49.00;;;;;;5990638;29;84984;-65
2022/01/30 06:51:57;;;;;;;2.45;1.27;;;22.70;49.30;;;;;;6060387;28;80211;-63
2022/01/30 06:55:21;;;;;;;4.00;2.20;;;22.70;49.90;;;;;;6030705;28;80383;-64
2022/01/30 06:58:57;;;;;;;8.60;2.28;;;22.80;50.40;;;;;;5967714;28;80377;-64
2022/01/30 07:02:36;;;;;;;5.28;2.22;;;22.70;51.10;;;;;;6000149;29;82812;-63
2022/01/30 07:05:56;;;;;;;4.85;1.83;;;22.60;51.80;;;;;;6001224;28;80879;-63
2022/01/30 07:09:06;;;;;;;4.13;2.28;;;22.60;51.90;;;;;;6034902;28;83829;-64
2022/01/30 07:12:07;;;;;;;4.13;1.98;;;22.60;52.30;;;;;;6052543;28;80890;-65
2022/01/30 07:15:08;;;;;;;2.58;1.55;;;22.60;52.50;;;;;;6051790;28;80400;-65
2022/01/30 07:18:08;;;;;;;2.10;1.50;;;22.60;52.60;;;;;;6056293;28;81388;-66
2022/01/30 07:21:09;;;;;;;3.40;1.58;;;22.60;53.20;;;;;;6060846;28;82924;-64
2022/01/30 07:24:10;;;;;;;4.90;1.90;;;22.50;53.80;;;;;;6062995;28;80626;-63
2022/01/30 07:27:10;;;;;;;2.83;1.25;;;22.50;53.90;;;;;;6060086;28;80442;-65
2022/01/30 07:30:11;;;;;;;2.60;1.50;;;22.40;54.20;;;;;;6059087;28;80518;-65
2022/01/30 07:33:11;;;;;;;3.40;1.75;;;22.40;53.70;;;;;;6046939;28;81062;-64
2022/01/30 07:36:12;;;;;;;6.60;1.80;;;22.50;53.30;;;;;;6046585;28;81192;-65
2022/01/30 07:39:15;;;;;;;4.82;1.80;;;22.60;52.70;;;;;;6051465;28;81673;-65
2022/01/30 07:42:16;;;;;;;3.95;1.85;;;22.70;52.50;;;;;;6057194;28;80261;-67
2022/01/30 07:45:18;;;;;;;4.68;1.95;;;22.70;51.80;;;;;;6050412;28;81984;-65
2022/01/30 07:48:18;;;;;;;4.47;1.88;;;22.70;50.90;;;;;;6047159;28;80881;-68
2022/01/30 07:51:19;;;;;;;4.00;1.70;;;22.70;50.50;;;;;;6050448;28;80705;-67
2022/01/30 07:54:19;;;;;;;3.85;1.90;;;22.70;50.20;;;;;;6066574;28;81737;-66
2022/01/30 07:57:20;;;;;;;6.10;2.30;;;22.70;50.20;;;;;;6048579;28;80233;-64
2022/01/30 08:00:20;;;;;;;4.63;1.50;;;22.70;49.70;;;;;;6060496;28;80382;-66
2022/01/30 08:03:22;;;;;;;4.32;2.15;;;22.70;49.20;;;;;;6067069;28;80859;-65
2022/01/30 08:06:23;;;;;;;4.93;2.10;;;22.70;49.40;;;;;;6057704;28;84895;-65
2022/01/30 08:09:23;;;;;;;6.38;2.20;;;22.70;49.20;;;;;;6064167;28;80405;-67
2022/01/30 08:12:24;;;;;;;4.05;2.13;;;22.70;49.00;;;;;;6059900;28;81385;-66
2022/01/30 08:15:24;;;;;;;6.32;2.20;;;22.70;49.10;;;;;;6048842;28;81528;-66
2022/01/30 08:18:25;;;;;;;3.47;1.95;;;22.70;49.00;;;;;;6063117;28;82822;-66
2022/01/30 08:21:25;;;;;;;8.02;2.05;;;22.70;49.00;;;;;;6058058;28;81109;-63
2022/01/30 08:24:26;;;;;;;9.05;4.32;;;22.70;49.20;;;;;;6063504;28;81874;-64
2022/01/30 08:27:26;;;;;;;26.00;10.00;;;22.70;48.90;;;;;;6064217;28;80605;-63
2022/01/30 08:30:27;;;;;;;38.35;15.32;;;22.80;49.30;;;;;;6053461;28;89790;-66
2022/01/30 08:33:27;;;;;;;33.25;13.55;;;22.80;49.20;;;;;;6050231;28;83297;-64
2022/01/30 08:36:28;;;;;;;29.98;13.27;;;22.80;49.10;;;;;;6043518;28;83335;-64
2022/01/30 08:39:32;;;;;;;32.25;11.68;;;22.80;49.00;;;;;;6040248;28;84224;-65
2022/01/30 08:42:36;;;;;;;32.55;11.90;;;22.80;48.80;;;;;;6042477;28;84204;-67
2022/01/30 08:45:40;;;;;;;36.78;17.25;;;22.80;48.50;;;;;;6064294;28;82985;-64
2022/01/30 08:48:40;;;;;;;51.00;20.83;;;22.70;48.40;;;;;;6061479;28;82990;-63
2022/01/30 08:51:41;;;;;;;48.08;21.73;;;22.70;48.30;;;;;;6059793;28;83345;-63
2022/01/30 08:54:41;;;;;;;39.15;19.10;;;22.70;48.10;;;;;;6047652;28;82991;-62
2022/01/30 08:57:42;;;;;;;37.85;17.48;;;22.70;48.20;;;;;;6047682;28;85795;-63
2022/01/30 09:00:42;;;;;;;33.47;15.90;;;22.70;48.10;;;;;;6051192;28;83328;-62
2022/01/30 09:03:43;;;;;;;29.98;12.68;;;22.70;48.10;;;;;;6062218;28;85148;-62
2022/01/30 09:06:43;;;;;;;40.05;15.32;;;22.70;47.90;;;;;;6060515;28;82827;-63
2022/01/30 09:09:44;;;;;;;28.52;13.35;;;22.70;47.70;;;;;;6062429;28;83787;-63
2022/01/30 09:12:44;;;;;;;31.70;12.10;;;22.70;47.80;;;;;;6059631;28;83420;-63
2022/01/30 09:15:45;;;;;;;24.45;11.65;;;22.60;47.80;;;;;;6061680;28;82894;-65
2022/01/30 09:18:45;;;;;;;22.27;10.52;;;22.60;48.20;;;;;;6044059;28;83231;-64
2022/01/30 09:21:46;;;;;;;19.98;9.32;;;22.70;48.40;;;;;;6048720;28;84709;-65
2022/01/30 09:24:47;;;;;;;18.65;8.50;;;22.70;48.00;;;;;;6064421;28;82116;-64
2022/01/30 09:27:47;;;;;;;28.05;9.90;;;22.70;47.60;;;;;;6051491;28;81179;-67
2022/01/30 09:30:48;;;;;;;71.53;34.25;;;22.70;47.20;;;;;;6046218;28;81362;-64
2022/01/30 09:33:48;;;;;;;188.38;83.95;;;22.80;46.90;;;;;;6055060;28;83377;-64
2022/01/30 09:36:49;;;;;;;234.80;107.95;;;22.70;46.30;;;;;;6058829;28;84644;-63
2022/01/30 09:39:49;;;;;;;202.23;99.90;;;22.70;45.30;;;;;;6047443;28;85379;-63
2022/01/30 09:42:50;;;;;;;201.45;93.75;;;22.80;45.10;;;;;;6061289;28;85775;-63
2022/01/30 09:45:50;;;;;;;208.82;100.15;;;22.80;44.80;;;;;;6059474;28;83660;-63
2022/01/30 09:48:51;;;;;;;258.88;122.97;;;22.70;44.60;;;;;;6057324;28;85866;-62
2022/01/30 09:51:52;;;;;;;461.15;227.27;;;22.70;44.20;;;;;;6057253;28;85734;-63
2022/01/30 09:54:52;;;;;;;371.88;180.93;;;22.70;44.00;;;;;;6040586;28;85628;-65
2022/01/30 09:57:53;;;;;;;330.17;156.68;;;22.70;43.40;;;;;;6058136;28;86045;-63
2022/01/30 10:00:54;;;;;;;305.20;146.60;;;22.80;42.90;;;;;;6057020;28;85899;-64
2022/01/30 10:03:54;;;;;;;279.63;132.48;;;22.70;43.10;;;;;;6039011;28;85884;-62
2022/01/30 10:06:56;;;;;;;243.02;119.20;;;22.70;42.70;;;;;;6051807;28;86282;-63
2022/01/30 10:09:56;;;;;;;233.15;113.03;;;22.70;42.60;;;;;;6058008;28;85882;-62
2022/01/30 10:12:57;;;;;;;216.85;102.93;;;22.70;42.70;;;;;;6043765;28;85439;-62
2022/01/30 10:15:58;;;;;;;190.52;90.75;;;22.70;42.60;;;;;;6054858;28;86018;-61
2022/01/30 10:18:58;;;;;;;174.52;81.97;;;22.80;42.60;;;;;;6058442;28;85881;-63
2022/01/30 10:21:59;;;;;;;153.70;74.55;;;22.70;42.50;;;;;;6045803;28;84350;-63
2022/01/30 10:24:59;;;;;;;132.27;65.70;;;22.70;42.50;;;;;;6043886;28;83446;-62
2022/01/30 10:28:00;;;;;;;128.38;61.00;;;22.70;42.10;;;;;;6044544;28;84308;-63
2022/01/30 10:31:00;;;;;;;107.97;54.13;;;22.80;42.10;;;;;;6050666;28;82987;-62
2022/01/30 10:34:01;;;;;;;101.13;51.97;;;22.80;42.20;;;;;;6045137;28;83626;-61
2022/01/30 10:37:01;;;;;;;107.90;48.78;;;22.80;42.10;;;;;;6044463;28;83907;-62
2022/01/30 10:40:05;;;;;;;94.63;43.75;;;22.80;42.30;;;;;;6043521;28;83315;-61
2022/01/30 10:43:05;;;;;;;79.47;38.45;;;22.80;42.20;;;;;;6045559;28;83211;-62
2022/01/30 10:46:06;;;;;;;76.28;34.40;;;22.80;42.20;;;;;;6045322;28;83681;-61
2022/01/30 10:49:06;;;;;;;74.35;35.45;;;22.80;42.30;;;;;;6053875;28;83808;-62
2022/01/30 10:52:07;;;;;;;71.93;33.15;;;22.80;42.10;;;;;;6048785;28;83908;-62
2022/01/30 10:55:07;;;;;;;69.75;30.70;;;22.80;42.20;;;;;;6060499;28;83129;-61
2022/01/30 10:58:08;;;;;;;62.50;30.52;;;22.80;42.40;;;;;;6047376;28;84411;-62
2022/01/30 11:01:08;;;;;;;54.55;27.27;;;22.80;42.40;;;;;;6058327;28;83176;-62
2022/01/30 11:04:09;;;;;;;58.05;25.65;;;22.80;42.40;;;;;;6058621;28;83073;-62
2022/01/30 11:07:09;;;;;;;54.83;25.42;;;22.80;42.40;;;;;;6051090;28;83198;-63
2022/01/30 11:10:21;;;;;;;48.47;23.92;;;22.80;42.30;;;;;;6056621;28;83221;-63
2022/01/30 11:13:32;;;;;;;48.47;23.63;;;22.90;42.50;;;;;;6054962;28;83525;-62
2022/01/30 11:19:52;;;;;;;43.25;20.58;;;22.90;42.70;;;;;;6051668;28;83443;-62
2022/01/30 11:22:52;;;;;;;41.22;20.48;;;22.90;43.00;;;;;;6058738;28;83345;-62
2022/01/30 11:25:53;;;;;;;44.00;21.98;;;22.90;44.40;;;;;;6054185;28;83263;-62
2022/01/30 11:28:53;;;;;;;41.72;19.80;;;22.90;46.20;;;;;;6058893;28;82871;-63
2022/01/30 11:31:54;;;;;;;42.83;21.25;;;23.00;50.70;;;;;;6040224;28;85840;-62
2022/01/30 11:34:54;;;;;;;40.42;19.05;;;23.00;51.40;;;;;;6050336;28;84640;-63
2022/01/30 11:37:55;;;;;;;36.53;16.83;;;23.00;50.90;;;;;;6058443;28;82910;-63
2022/01/30 11:40:55;;;;;;;37.13;17.02;;;23.10;50.10;;;;;;6050585;28;83211;-62
2022/01/30 11:43:56;;;;;;;35.45;17.25;;;23.00;49.00;;;;;;6057122;28;84403;-62
2022/01/30 11:46:57;;;;;;;25.80;14.23;;;23.00;48.20;;;;;;6057531;28;82959;-63
2022/01/30 11:49:59;;;;;;;26.83;13.90;;;23.00;48.60;;;;;;6042131;28;85946;-63
2022/01/30 11:53:00;;;;;;;28.52;13.70;;;23.00;48.30;;;;;;6057412;28;83509;-65
2022/01/30 11:56:01;;;;;;;24.77;12.27;;;23.00;48.30;;;;;;6056404;28;86142;-62
2022/01/30 11:59:05;;;;;;;26.40;12.55;;;23.00;48.20;;;;;;6055936;28;83000;-64
2022/01/30 12:02:05;;;;;;;25.23;10.68;;;23.00;47.40;;;;;;6055868;28;83053;-62
2022/01/30 12:05:06;;;;;;;29.02;10.93;;;23.00;47.20;;;;;;6056213;28;83638;-62
2022/01/30 12:08:06;;;;;;;22.75;11.25;;;23.00;46.80;;;;;;6060737;28;83062;-63
2022/01/30 12:11:07;;;;;;;16.42;9.48;;;23.00;46.80;;;;;;6053851;28;84669;-63
2022/01/30 12:14:07;;;;;;;18.40;9.50;;;23.00;46.50;;;;;;6043293;28;81889;-62
2022/01/30 12:17:08;;;;;;;21.23;9.20;;;23.00;46.40;;;;;;6051900;28;80942;-62
2022/01/30 12:20:08;;;;;;;22.90;10.18;;;23.00;46.00;;;;;;6058225;28;80542;-62
2022/01/30 12:23:09;;;;;;;18.77;9.63;;;23.00;46.00;;;;;;6045455;28;83851;-61
2022/01/30 12:26:09;;;;;;;20.70;9.38;;;22.90;46.10;;;;;;6051523;28;84290;-62
2022/01/30 12:29:11;;;;;;;17.05;8.15;;;22.90;45.90;;;;;;6048397;28;80691;-62
2022/01/30 12:32:11;;;;;;;15.95;7.75;;;22.90;46.20;;;;;;6049511;28;80345;-62
2022/01/30 12:35:12;;;;;;;18.83;8.63;;;22.90;45.90;;;;;;6059693;28;81904;-62
2022/01/30 12:38:12;;;;;;;15.38;8.38;;;22.90;45.90;;;;;;6044834;28;80497;-62
2022/01/30 12:41:13;;;;;;;12.63;7.53;;;22.90;45.70;;;;;;6039581;28;80888;-62
2022/01/30 12:44:14;;;;;;;14.82;7.15;;;22.90;45.80;;;;;;6062059;28;80733;-63
2022/01/30 12:47:14;;;;;;;13.93;6.93;;;22.90;45.60;;;;;;6068740;28;80593;-62
2022/01/30 12:50:15;;;;;;;20.88;9.55;;;22.90;45.30;;;;;;6059673;28;80761;-62
2022/01/30 12:53:15;;;;;;;19.08;8.82;;;22.90;45.30;;;;;;6054627;28;80650;-63
2022/01/30 12:56:16;;;;;;;18.95;8.52;;;22.80;45.50;;;;;;6054715;28;80715;-63
2022/01/30 12:59:16;;;;;;;19.98;8.20;;;22.80;45.90;;;;;;6064663;28;80566;-63
2022/01/30 13:02:17;;;;;;;14.32;7.38;;;22.90;46.00;;;;;;6061346;28;80438;-64
2022/01/30 13:05:17;;;;;;;24.20;8.15;;;22.90;45.60;;;;;;6063276;28;80502;-62
2022/01/30 13:08:18;;;;;;;15.73;7.55;;;22.90;45.80;;;;;;6053705;28;82542;-63
2022/01/30 13:11:18;;;;;;;14.93;6.22;;;22.90;45.50;;;;;;6063767;28;81689;-62
2022/01/30 13:14:19;;;;;;;15.68;6.22;;;22.90;45.50;;;;;;6059271;28;86804;-61
2022/01/30 13:17:20;;;;;;;17.00;7.15;;;22.90;45.50;;;;;;6058031;28;80447;-63
2022/01/30 13:20:20;;;;;;;11.95;6.45;;;22.90;45.60;;;;;;6053030;28;81925;-63
2022/01/30 13:23:21;;;;;;;11.35;5.68;;;22.90;45.50;;;;;;6059085;28;80624;-64
2022/01/30 13:26:21;;;;;;;12.88;5.60;;;22.90;45.50;;;;;;6062464;28;82405;-62
2022/01/30 13:29:22;;;;;;;14.55;6.28;;;23.00;45.60;;;;;;6049992;28;80327;-62
2022/01/30 13:32:23;;;;;;;12.90;5.47;;;23.00;45.50;;;;;;6056685;28;80929;-63
2022/01/30 13:35:23;;;;;;;13.02;5.68;;;23.10;45.30;;;;;;6062376;28;80512;-63
2022/01/30 13:38:26;;;;;;;9.90;5.00;;;23.10;45.00;;;;;;6060469;28;83417;-63
2022/01/30 13:41:28;;;;;;;14.75;4.70;;;23.10;45.00;;;;;;6056996;28;80397;-62
2022/01/30 13:44:29;;;;;;;11.50;5.90;;;23.20;44.90;;;;;;6062567;28;80751;-63
2022/01/30 13:47:30;;;;;;;11.63;4.65;;;23.20;44.90;;;;;;6046271;28;80307;-63
2022/01/30 13:50:30;;;;;;;10.45;4.82;;;23.20;44.60;;;;;;6057552;28;80638;-63
2022/01/30 13:53:31;;;;;;;9.05;4.57;;;23.20;44.50;;;;;;6057851;28;80816;-64
2022/01/30 13:56:32;;;;;;;10.27;5.00;;;23.30;44.50;;;;;;6062087;28;80377;-64
2022/01/30 13:59:33;;;;;;;11.02;5.05;;;23.30;44.00;;;;;;6062287;28;80497;-64
2022/01/30 14:02:33;;;;;;;11.27;5.05;;;23.30;43.70;;;;;;6055582;28;80392;-64
2022/01/30 14:05:34;;;;;;;10.55;5.03;;;23.30;43.60;;;;;;6054909;28;80271;-62
2022/01/30 14:08:34;;;;;;;10.57;4.20;;;23.30;43.70;;;;;;6054340;28;81965;-63
2022/01/30 14:11:35;;;;;;;10.65;4.22;;;23.30;43.40;;;;;;6063893;28;80587;-63
2022/01/30 14:14:38;;;;;;;8.63;4.13;;;23.40;43.30;;;;;;6059335;28;82134;-62
2022/01/30 14:17:42;;;;;;;17.77;4.90;;;23.40;43.30;;;;;;6056522;28;80486;-61
2022/01/30 14:20:43;;;;;;;16.00;8.10;;;23.30;42.60;;;;;;6057583;28;80740;-61
2022/01/30 14:23:43;;;;;;;13.82;6.32;;;23.30;42.70;;;;;;6060366;28;80374;-60
2022/01/30 14:26:44;;;;;;;16.58;7.43;;;23.30;42.70;;;;;;6047982;28;80789;-62
2022/01/30 14:29:45;;;;;;;22.33;9.57;;;23.30;42.80;;;;;;6054466;28;82085;-62
2022/01/30 14:32:45;;;;;;;20.52;9.18;;;23.20;42.90;;;;;;6039047;28;80778;-61
2022/01/30 14:35:46;;;;;;;17.17;8.90;;;23.20;42.70;;;;;;6061108;28;80739;-62
2022/01/30 14:38:48;;;;;;;23.10;10.25;;;23.30;42.80;;;;;;6064889;28;80277;-61
2022/01/30 14:41:49;;;;;;;27.00;11.43;;;23.30;42.90;;;;;;6048966;28;85578;-61
2022/01/30 14:44:49;;;;;;;27.25;12.13;;;23.20;43.00;;;;;;6057914;28;83359;-62
2022/01/30 14:47:50;;;;;;;25.02;14.20;;;23.20;42.80;;;;;;6049355;28;83401;-61
2022/01/30 14:50:51;;;;;;;26.30;12.57;;;23.20;42.60;;;;;;6054070;28;83765;-62
2022/01/30 14:53:51;;;;;;;25.77;11.75;;;23.20;42.80;;;;;;6048430;28;83461;-61
2022/01/30 14:56:52;;;;;;;33.55;14.45;;;23.20;42.60;;;;;;6059803;28;82980;-62
2022/01/30 14:59:52;;;;;;;24.77;12.50;;;23.20;43.00;;;;;;6057603;28;83561;-62
2022/01/30 15:02:53;;;;;;;22.52;10.52;;;23.10;42.80;;;;;;6059870;28;83222;-62
2022/01/30 15:05:54;;;;;;;27.30;11.13;;;23.20;42.60;;;;;;6060160;28;83388;-63
2022/01/30 15:08:55;;;;;;;22.70;9.52;;;23.20;42.40;;;;;;6060028;28;82987;-62
2022/01/30 15:11:55;;;;;;;24.30;9.52;;;23.20;42.70;;;;;;6046456;28;83196;-61
2022/01/30 15:14:56;;;;;;;22.80;9.32;;;23.20;42.60;;;;;;6058812;28;80878;-62
2022/01/30 15:18:01;;;;;;;19.17;8.43;;;23.20;42.50;;;;;;6056377;28;80267;-62
2022/01/30 15:21:01;;;;;;;14.05;7.15;;;23.10;43.00;;;;;;6046482;28;83010;-62
2022/01/30 15:24:02;;;;;;;15.80;7.63;;;23.20;43.10;;;;;;6057574;28;80288;-63
2022/01/30 15:27:03;;;;;;;18.63;6.82;;;23.20;43.20;;;;;;6058340;28;81574;-63
2022/01/30 15:30:04;;;;;;;14.13;6.70;;;23.20;43.20;;;;;;6046591;28;80486;-63
2022/01/30 15:33:05;;;;;;;12.82;5.90;;;23.20;43.30;;;;;;6061816;28;82370;-63
2022/01/30 15:36:05;;;;;;;15.70;6.28;;;23.20;43.20;;;;;;6073024;28;81468;-63
2022/01/30 15:39:06;;;;;;;11.50;6.25;;;23.20;43.30;;;;;;6061647;28;81912;-63
2022/01/30 15:42:06;;;;;;;11.27;5.28;;;23.20;43.20;;;;;;6041861;28;81765;-62
2022/01/30 15:51:26;;;;;;;10.13;5.05;;;23.20;43.20;;;;;;6061541;28;85131;-63
2022/01/30 15:54:27;;;;;;;10.13;4.75;;;23.20;43.10;;;;;;6063440;28;80447;-64
2022/01/30 15:57:27;;;;;;;10.02;4.93;;;23.20;43.10;;;;;;6062003;28;81143;-63
2022/01/30 16:00:28;;;;;;;11.70;4.78;;;23.20;43.10;;;;;;6046484;28;81025;-63
2022/01/30 16:03:28;;;;;;;13.30;5.55;;;23.20;43.20;;;;;;6056662;28;81400;-64
2022/01/30 16:06:30;;;;;;;13.00;5.38;;;23.20;43.20;;;;;;6061637;28;80307;-64
2022/01/30 16:09:34;;;;;;;9.25;4.35;;;23.20;42.90;;;;;;6061751;28;80336;-64
2022/01/30 16:15:39;;;;;;;14.95;5.88;;;23.10;43.60;;;;;;6049701;28;82095;-63
2022/01/30 16:18:39;;;;;;;12.85;5.00;;;23.10;43.50;;;;;;6048452;28;80510;-65
2022/01/30 16:21:40;;;;;;;15.27;5.28;;;23.10;43.60;;;;;;6047536;28;81547;-64
2022/01/30 16:24:40;;;;;;;13.60;5.03;;;23.10;44.00;;;;;;6060830;28;81561;-63
2022/01/30 16:27:41;;;;;;;17.50;4.82;;;23.10;44.20;;;;;;6067490;28;82031;-64
2022/01/30 16:30:41;;;;;;;13.45;4.78;;;23.10;44.30;;;;;;6049945;28;80545;-64
2022/01/30 16:33:42;;;;;;;12.65;4.53;;;23.10;45.10;;;;;;6048567;28;81780;-63
2022/01/30 16:36:43;;;;;;;12.02;5.22;;;23.10;45.30;;;;;;6064085;28;80373;-63
2022/01/30 16:39:43;;;;;;;11.15;4.13;;;23.10;45.10;;;;;;6063454;28;80596;-63
2022/01/30 16:42:44;;;;;;;10.80;4.75;;;23.10;44.70;;;;;;6062129;28;81654;-65
2022/01/30 16:45:51;;;;;;;10.32;4.22;;;23.10;44.20;;;;;;6066283;28;80298;-63
2022/01/30 16:48:52;;;;;;;10.93;5.35;;;23.10;44.40;;;;;;6062499;28;80428;-64
2022/01/30 16:51:52;;;;;;;7.80;4.07;;;23.00;44.10;;;;;;6066498;28;80513;-63
2022/01/30 16:54:56;;;;;;;8.30;3.83;;;23.10;44.10;;;;;;6058257;28;81554;-65